Time;durP1;ratioP1;P1;durP2;ratioP2;P2;SDS_P1;SDS_P2;PMS_P1;PMS_P2;Temp;Humidity;BMP_temperature;BMP_pressure;BME280_temperature;BME280_humidity;BME280_pressure;Samples;Min_cycle;Max_cycle;Signal;HPM_P1;HPM_P2
2023/12/22 00:00:26;;;;;;;226.75;131.00;;;6.60;1.00;;;;;;4970908;28;20062;-77
2023/12/22 00:02:54;;;;;;;263.05;151.80;;;6.70;1.00;;;;;;4971150;28;20046;-76
2023/12/22 00:05:23;;;;;;;243.85;144.00;;;6.70;1.00;;;;;;4954065;28;20066;-77
2023/12/22 00:07:50;;;;;;;210.88;125.88;;;6.70;1.00;;;;;;4970006;28;20126;-77
2023/12/22 00:10:18;;;;;;;220.80;131.05;;;6.60;1.00;;;;;;4970540;28;20039;-79
2023/12/22 00:12:45;;;;;;;228.48;130.85;;;6.50;1.00;;;;;;4970752;28;20039;-77
2023/12/22 00:15:12;;;;;;;226.38;136.02;;;6.50;1.00;;;;;;4970757;28;20047;-77
2023/12/22 00:17:40;;;;;;;225.52;129.07;;;6.50;1.00;;;;;;4970764;28;20046;-78
2023/12/22 00:20:13;;;;;;;225.93;127.88;;;6.60;1.00;;;;;;4970650;28;20043;-76
2023/12/22 00:22:42;;;;;;;232.73;128.35;;;6.60;1.00;;;;;;4968890;28;20043;-76
2023/12/22 00:25:10;;;;;;;227.70;123.10;;;6.60;1.00;;;;;;4969634;28;20125;-78
2023/12/22 00:27:37;;;;;;;235.32;125.00;;;6.70;1.00;;;;;;4954316;28;20051;-76
2023/12/22 00:30:06;;;;;;;225.43;122.93;;;6.70;1.00;;;;;;4963313;28;20050;-77
2023/12/22 00:32:33;;;;;;;211.68;110.57;;;6.70;1.00;;;;;;4970689;28;20042;-76
2023/12/22 00:35:01;;;;;;;198.73;108.70;;;6.70;1.00;;;;;;4969219;28;20049;-77
2023/12/22 00:37:28;;;;;;;136.18;74.57;;;6.60;1.00;;;;;;4970025;28;20045;-78
2023/12/22 00:39:57;;;;;;;135.45;73.63;;;6.60;1.00;;;;;;4971398;28;20047;-77
2023/12/22 00:42:25;;;;;;;135.55;77.63;;;6.60;1.00;;;;;;4972023;28;20074;-76
2023/12/22 00:44:52;;;;;;;155.27;85.05;;;6.60;1.00;;;;;;4988958;28;20049;-76
2023/12/22 00:47:20;;;;;;;149.38;81.65;;;6.70;1.00;;;;;;4982508;28;20050;-76
2023/12/22 00:49:48;;;;;;;114.95;61.67;;;6.70;1.00;;;;;;4958014;28;20073;-75
2023/12/22 00:52:15;;;;;;;114.40;62.35;;;6.70;1.00;;;;;;4970668;28;20070;-77
2023/12/22 00:54:42;;;;;;;107.95;59.38;;;6.70;1.00;;;;;;4956185;28;20046;-77
2023/12/22 00:57:13;;;;;;;103.78;57.28;;;6.80;1.00;;;;;;4969570;28;20402;-76
2023/12/22 00:59:45;;;;;;;123.53;63.28;;;6.80;1.00;;;;;;4970116;28;20039;-77
2023/12/22 01:02:12;;;;;;;122.55;67.22;;;6.90;1.00;;;;;;4968610;28;21158;-77
2023/12/22 01:04:40;;;;;;;150.40;82.65;;;6.90;1.00;;;;;;4967973;28;20495;-76
2023/12/22 01:07:09;;;;;;;143.50;80.05;;;6.90;1.00;;;;;;4973052;28;20046;-77
2023/12/22 01:09:37;;;;;;;137.20;77.03;;;6.80;1.00;;;;;;4974436;28;21000;-76
2023/12/22 01:12:06;;;;;;;145.40;79.03;;;6.80;1.00;;;;;;4972971;28;20170;-76
2023/12/22 01:14:34;;;;;;;134.25;75.97;;;6.80;1.00;;;;;;4980863;28;20166;-77
2023/12/22 01:17:01;;;;;;;137.30;76.05;;;6.70;1.00;;;;;;4982760;28;20058;-79
2023/12/22 01:19:28;;;;;;;126.15;71.82;;;6.70;1.00;;;;;;4975502;28;20038;-78
2023/12/22 01:21:56;;;;;;;121.75;68.80;;;6.70;1.00;;;;;;4971978;28;20047;-76
2023/12/22 01:24:23;;;;;;;131.90;72.63;;;6.80;1.00;;;;;;4973772;28;20047;-76
2023/12/22 01:26:51;;;;;;;127.28;69.78;;;6.80;1.00;;;;;;4972761;28;20094;-76
2023/12/22 01:29:18;;;;;;;127.18;69.82;;;6.80;1.00;;;;;;4968743;28;20545;-77
2023/12/22 01:31:47;;;;;;;130.45;71.18;;;6.80;1.00;;;;;;4954108;28;20081;-77
2023/12/22 01:34:14;;;;;;;86.43;50.88;;;6.80;1.00;;;;;;4970968;28;20062;-78
2023/12/22 01:36:42;;;;;;;96.72;53.17;;;6.80;1.00;;;;;;4957188;28;20049;-77
2023/12/22 01:39:09;;;;;;;97.82;56.05;;;6.70;1.00;;;;;;4957004;28;20049;-78
2023/12/22 01:41:36;;;;;;;103.68;58.05;;;6.80;1.00;;;;;;4972225;28;20038;-77
2023/12/22 01:44:04;;;;;;;106.45;61.25;;;6.80;1.00;;;;;;4974902;28;20047;-76
2023/12/22 01:46:31;;;;;;;111.15;60.85;;;6.80;1.00;;;;;;4969620;28;20046;-76
2023/12/22 01:49:01;;;;;;;109.97;61.63;;;6.80;1.00;;;;;;4970844;28;20098;-77
2023/12/22 01:51:29;;;;;;;122.25;68.55;;;6.70;1.00;;;;;;4969538;28;20051;-75
2023/12/22 01:53:56;;;;;;;147.85;82.97;;;6.70;1.00;;;;;;4969127;28;20511;-77
2023/12/22 01:56:24;;;;;;;109.43;60.85;;;6.70;1.00;;;;;;4967996;28;20491;-76
2023/12/22 01:58:54;;;;;;;104.00;60.53;;;6.70;1.00;;;;;;4968892;28;20047;-77
2023/12/22 02:01:21;;;;;;;112.25;63.00;;;6.60;1.00;;;;;;4969012;28;20133;-75
2023/12/22 02:03:52;;;;;;;132.00;75.82;;;6.70;1.00;;;;;;4953317;28;20435;-75
2023/12/22 02:06:21;;;;;;;108.22;67.40;;;6.60;1.00;;;;;;4968921;28;20047;-77
2023/12/22 02:08:49;;;;;;;113.00;69.15;;;6.60;1.00;;;;;;4970521;28;20051;-75
2023/12/22 02:11:17;;;;;;;125.50;79.45;;;6.60;1.00;;;;;;4956514;28;20190;-78
2023/12/22 02:13:45;;;;;;;128.60;79.80;;;6.60;1.00;;;;;;4973789;28;20475;-76
2023/12/22 02:16:19;;;;;;;98.68;60.00;;;6.70;1.00;;;;;;4973686;28;20422;-76
2023/12/22 02:18:51;;;;;;;115.40;69.90;;;6.60;1.00;;;;;;4972666;28;20039;-76
2023/12/22 02:21:18;;;;;;;113.00;70.68;;;6.60;1.00;;;;;;4972710;28;20039;-75
2023/12/22 02:23:48;;;;;;;102.38;63.47;;;6.60;1.00;;;;;;4972626;28;20049;-75
2023/12/22 02:26:23;;;;;;;80.28;49.88;;;6.60;1.00;;;;;;4972087;28;20126;-75
2023/12/22 02:28:52;;;;;;;80.97;51.07;;;6.70;1.00;;;;;;4977165;28;20042;-76
2023/12/22 02:31:29;;;;;;;75.25;47.65;;;6.70;1.00;;;;;;4977850;28;20049;-77
2023/12/22 02:33:59;;;;;;;77.13;46.30;;;6.70;1.00;;;;;;4972636;28;20039;-75
2023/12/22 02:36:28;;;;;;;75.68;43.05;;;6.60;1.00;;;;;;4971987;28;20039;-75
2023/12/22 02:38:59;;;;;;;78.65;46.10;;;6.60;1.00;;;;;;4971665;28;20042;-75
2023/12/22 02:41:27;;;;;;;85.95;50.13;;;6.60;1.00;;;;;;4972665;28;20043;-75
2023/12/22 02:43:54;;;;;;;71.93;41.38;;;6.60;1.00;;;;;;4972191;28;20050;-75
2023/12/22 02:46:22;;;;;;;69.70;38.78;;;6.70;1.00;;;;;;4972976;28;20046;-77
2023/12/22 02:48:49;;;;;;;63.35;38.35;;;6.70;1.00;;;;;;4973168;28;20039;-76
2023/12/22 02:51:17;;;;;;;96.85;55.58;;;6.80;1.00;;;;;;4972274;28;20105;-76
2023/12/22 02:53:44;;;;;;;87.93;53.17;;;6.90;1.00;;;;;;4972001;28;20054;-77
2023/12/22 02:56:13;;;;;;;83.53;47.92;;;6.90;1.00;;;;;;4971159;28;20043;-76
2023/12/22 02:58:41;;;;;;;115.50;61.15;;;7.00;1.00;;;;;;4974243;28;20039;-77
2023/12/22 03:01:08;;;;;;;119.93;63.05;;;7.10;1.00;;;;;;4981826;28;20047;-77
2023/12/22 03:03:35;;;;;;;113.82;62.88;;;7.20;1.00;;;;;;4981162;28;20117;-77
2023/12/22 03:06:03;;;;;;;129.05;68.57;;;7.10;1.00;;;;;;4980174;28;20554;-77
2023/12/22 03:08:30;;;;;;;127.82;71.43;;;7.00;1.00;;;;;;4979878;28;20070;-76
2023/12/22 03:10:58;;;;;;;138.43;77.40;;;7.00;1.00;;;;;;4972067;28;20042;-76
2023/12/22 03:13:27;;;;;;;148.32;82.18;;;6.90;1.00;;;;;;4971661;28;20133;-78
2023/12/22 03:15:54;;;;;;;142.88;80.15;;;6.90;99.90;;;;;;4976721;28;20246;-79
2023/12/22 03:18:23;;;;;;;146.60;82.43;;;6.80;99.90;;;;;;4977328;28;20047;-76
2023/12/22 03:20:51;;;;;;;133.93;75.88;;;6.70;99.90;;;;;;4972142;28;20365;-78
2023/12/22 03:23:18;;;;;;;143.18;80.03;;;6.70;99.90;;;;;;4971064;28;20569;-77
2023/12/22 03:25:46;;;;;;;140.65;83.15;;;6.80;1.00;;;;;;4977137;28;20544;-78
2023/12/22 03:28:13;;;;;;;139.00;78.65;;;6.90;99.90;;;;;;4978912;28;20074;-77
2023/12/22 03:30:42;;;;;;;134.65;76.07;;;6.90;1.00;;;;;;4985433;28;20038;-76
2023/12/22 03:33:09;;;;;;;132.60;74.78;;;6.90;1.00;;;;;;4983905;28;20076;-77
2023/12/22 03:35:37;;;;;;;132.90;73.95;;;6.90;1.00;;;;;;4972329;28;20459;-77
2023/12/22 03:38:05;;;;;;;127.50;73.45;;;6.90;1.00;;;;;;4980887;28;20042;-77
2023/12/22 03:40:33;;;;;;;129.43;73.13;;;6.90;1.00;;;;;;4980086;28;20105;-79
2023/12/22 03:43:02;;;;;;;100.85;57.90;;;7.00;1.00;;;;;;4975011;28;20491;-77
2023/12/22 03:45:29;;;;;;;103.53;58.85;;;6.90;1.00;;;;;;4956814;28;20465;-78
2023/12/22 03:47:58;;;;;;;113.05;62.97;;;6.90;1.00;;;;;;4971931;28;20043;-76
2023/12/22 03:50:25;;;;;;;131.25;74.00;;;7.10;1.00;;;;;;4972773;28;20058;-78
2023/12/22 03:52:53;;;;;;;127.35;73.72;;;7.10;1.00;;;;;;4985182;23;20085;-76
2023/12/22 03:55:21;;;;;;;122.07;68.95;;;7.20;1.00;;;;;;4957717;28;20055;-78
2023/12/22 03:57:49;;;;;;;117.50;67.97;;;7.20;1.00;;;;;;4958266;28;20069;-77
2023/12/22 04:00:17;;;;;;;120.05;69.28;;;7.20;1.00;;;;;;4957228;28;20077;-77
2023/12/22 04:02:45;;;;;;;120.07;70.45;;;7.20;1.00;;;;;;4971548;28;20043;-78
2023/12/22 04:05:14;;;;;;;117.30;66.10;;;7.30;1.00;;;;;;4959393;28;20061;-77
2023/12/22 04:07:42;;;;;;;132.48;74.05;;;7.20;1.00;;;;;;4959006;28;20514;-79
2023/12/22 04:10:10;;;;;;;116.88;65.65;;;7.10;1.00;;;;;;4958085;28;20046;-78
2023/12/22 04:12:38;;;;;;;110.88;65.18;;;7.10;1.00;;;;;;4956966;28;20054;-78
2023/12/22 04:15:08;;;;;;;115.13;65.55;;;7.20;1.00;;;;;;4974665;28;20047;-77
2023/12/22 04:17:37;;;;;;;107.00;61.47;;;7.30;1.00;;;;;;4957092;28;20142;-77
2023/12/22 04:20:06;;;;;;;103.72;59.05;;;7.30;1.00;;;;;;4958499;28;20043;-79
2023/12/22 04:22:36;;;;;;;94.00;54.03;;;7.30;1.00;;;;;;4959581;28;20042;-78
2023/12/22 04:25:12;;;;;;;88.63;54.47;;;7.30;1.00;;;;;;4969522;28;20053;-81
2023/12/22 04:27:41;;;;;;;94.28;60.58;;;7.30;1.00;;;;;;4973552;28;20137;-76
2023/12/22 04:30:11;;;;;;;88.95;57.85;;;7.30;1.00;;;;;;4974171;28;20034;-78
2023/12/22 04:32:38;;;;;;;73.80;49.67;;;7.30;1.00;;;;;;4958375;28;20050;-80
2023/12/22 04:35:07;;;;;;;82.90;51.85;;;7.30;99.90;;;;;;4977234;28;20066;-81
2023/12/22 04:37:40;;;;;;;80.70;52.45;;;7.30;99.90;;;;;;4975123;28;20031;-79
2023/12/22 04:40:15;;;;;;;91.38;60.15;;;7.40;99.90;;;;;;4978864;28;20057;-80
2023/12/22 04:42:44;;;;;;;104.35;59.47;;;7.40;1.00;;;;;;4979217;28;20050;-79
2023/12/22 04:45:12;;;;;;;102.38;66.93;;;7.30;99.90;;;;;;4964013;28;20606;-79
2023/12/22 04:47:41;;;;;;;91.60;58.70;;;7.30;99.90;;;;;;4971214;28;20047;-78
2023/12/22 04:50:09;;;;;;;92.97;59.65;;;7.20;1.00;;;;;;4991719;28;20039;-78
2023/12/22 04:52:39;;;;;;;97.57;59.78;;;7.20;1.00;;;;;;4994569;28;20054;-79
2023/12/22 04:55:07;;;;;;;89.53;57.50;;;7.20;99.90;;;;;;4979975;28;20050;-79
2023/12/22 04:57:43;;;;;;;74.07;46.47;;;7.20;1.00;;;;;;4989991;28;20049;-79
2023/12/22 05:00:12;;;;;;;89.95;56.28;;;7.20;1.00;;;;;;4981812;28;20177;-79
2023/12/22 05:02:42;;;;;;;91.70;52.97;;;7.20;99.90;;;;;;4989359;28;20035;-79
2023/12/22 05:05:15;;;;;;;140.32;80.72;;;7.10;99.90;;;;;;4965272;28;20050;-78
2023/12/22 05:07:46;;;;;;;103.65;57.67;;;7.20;1.00;;;;;;4948023;28;20047;-78
2023/12/22 05:10:14;;;;;;;113.85;66.53;;;7.20;1.00;;;;;;4964731;28;20078;-78
2023/12/22 05:12:43;;;;;;;123.45;73.97;;;7.20;99.90;;;;;;4964882;28;20234;-77
2023/12/22 05:15:11;;;;;;;118.00;69.28;;;7.30;1.00;;;;;;4968482;28;20047;-79
2023/12/22 05:17:40;;;;;;;110.70;65.70;;;7.30;1.00;;;;;;4972263;28;20057;-79
2023/12/22 05:20:09;;;;;;;108.15;62.75;;;7.40;99.90;;;;;;4988397;28;20046;-80
2023/12/22 05:22:47;;;;;;;100.65;61.83;;;7.40;99.90;;;;;;4979380;28;20467;-79
2023/12/22 05:25:15;;;;;;;95.32;63.40;;;7.40;1.00;;;;;;4961995;28;20055;-79
2023/12/22 05:27:43;;;;;;;102.20;64.57;;;7.50;1.00;;;;;;4961373;28;20051;-79
2023/12/22 05:30:15;;;;;;;97.47;59.83;;;7.50;99.90;;;;;;4974378;28;20050;-79
2023/12/22 05:32:43;;;;;;;100.50;61.78;;;7.50;1.00;;;;;;4979082;28;20047;-78
2023/12/22 05:35:11;;;;;;;103.18;61.90;;;7.60;1.00;;;;;;4980484;28;20051;-77
2023/12/22 05:37:39;;;;;;;97.43;59.35;;;7.60;1.00;;;;;;4969169;28;20103;-79
2023/12/22 05:40:11;;;;;;;94.65;57.10;;;7.60;7.70;;;;;;4997402;28;20154;-78
2023/12/22 05:42:39;;;;;;;89.68;57.50;;;7.60;1.00;;;;;;4980072;28;20031;-78
2023/12/22 05:45:11;;;;;;;87.90;54.25;;;7.40;1.00;;;;;;4983195;28;20598;-79
2023/12/22 05:47:41;;;;;;;94.82;59.00;;;7.30;1.00;;;;;;4980942;28;20066;-78
2023/12/22 05:50:13;;;;;;;105.38;62.97;;;7.20;1.00;;;;;;4979248;28;20051;-79
2023/12/22 05:52:41;;;;;;;95.18;57.83;;;7.30;1.00;;;;;;5000214;28;20043;-79
2023/12/22 05:55:14;;;;;;;105.28;61.47;;;7.30;28.80;;;;;;5001686;28;20030;-78
2023/12/22 05:57:44;;;;;;;96.53;58.72;;;7.30;1.00;;;;;;4999402;28;20027;-79
2023/12/22 06:00:15;;;;;;;105.45;65.60;;;7.40;99.90;;;;;;4981814;28;20057;-79
2023/12/22 06:02:43;;;;;;;99.20;66.32;;;7.40;99.90;;;;;;4998185;28;20046;-78
2023/12/22 06:05:11;;;;;;;102.72;67.65;;;7.30;99.90;;;;;;4981897;28;20039;-77
2023/12/22 06:07:39;;;;;;;98.03;63.55;;;7.30;99.90;;;;;;4998120;28;20047;-78
2023/12/22 06:10:10;;;;;;;80.97;51.78;;;7.30;99.90;;;;;;4992367;28;20043;-79
2023/12/22 06:12:38;;;;;;;78.50;51.15;;;7.20;99.90;;;;;;4978618;28;20158;-79
2023/12/22 06:15:07;;;;;;;47.92;32.45;;;7.20;99.90;;;;;;4978152;28;20039;-79
2023/12/22 06:17:40;;;;;;;75.38;54.90;;;7.30;99.90;;;;;;4982914;28;20031;-78
2023/12/22 06:20:09;;;;;;;103.00;68.32;;;7.40;99.90;;;;;;4988764;28;20475;-78
2023/12/22 06:22:38;;;;;;;93.25;65.00;;;7.40;99.90;;;;;;4980275;28;20039;-78
2023/12/22 06:25:09;;;;;;;101.60;71.85;;;7.50;99.90;;;;;;4979727;28;20043;-78
2023/12/22 06:27:39;;;;;;;93.63;64.88;;;7.60;99.90;;;;;;4981784;28;20146;-78
2023/12/22 06:30:09;;;;;;;94.30;67.90;;;7.60;99.90;;;;;;4964918;28;20043;-78
2023/12/22 06:32:40;;;;;;;85.78;62.13;;;7.60;99.90;;;;;;4963064;28;20126;-79
2023/12/22 06:35:10;;;;;;;93.43;66.32;;;7.70;99.90;;;;;;4977786;28;20057;-80
2023/12/22 06:37:39;;;;;;;79.50;52.08;;;7.70;99.90;;;;;;4998195;28;20034;-81
2023/12/22 06:40:10;;;;;;;89.38;59.33;;;7.70;99.90;;;;;;4981976;28;20023;-78
2023/12/22 06:42:38;;;;;;;80.35;52.60;;;7.80;99.90;;;;;;4998573;28;20138;-79
2023/12/22 06:45:12;;;;;;;47.33;31.35;;;7.80;99.90;;;;;;4994688;28;20042;-79
2023/12/22 06:47:47;;;;;;;39.55;26.50;;;7.80;99.90;;;;;;4982812;28;20050;-77
2023/12/22 06:50:15;;;;;;;;;;;7.80;99.90;;;;;;4984620;28;20518;-77
2023/12/22 06:52:44;;;;;;;37.90;25.48;;;7.90;99.90;;;;;;4983231;28;19922;-76
2023/12/22 06:55:19;;;;;;;28.67;21.50;;;8.00;99.90;;;;;;4972647;28;20045;-77
2023/12/22 06:57:47;;;;;;;27.58;19.83;;;8.00;99.90;;;;;;4959140;28;20118;-78
2023/12/22 07:00:16;;;;;;;23.98;17.70;;;8.10;99.90;;;;;;4974570;28;20039;-78
2023/12/22 07:02:45;;;;;;;21.48;13.85;;;8.20;99.90;;;;;;4975417;28;20042;-76
2023/12/22 07:05:32;;;;;;;25.08;16.60;;;8.20;99.90;;;;;;4974990;28;20431;-79
2023/12/22 07:08:00;;;;;;;24.48;17.20;;;8.30;99.90;;;;;;4955294;28;20612;-74
2023/12/22 07:10:32;;;;;;;25.13;17.27;;;8.30;99.90;;;;;;4967803;28;20062;-79
2023/12/22 07:12:59;;;;;;;25.90;18.20;;;8.40;99.90;;;;;;4955363;28;20043;-77
2023/12/22 07:15:28;;;;;;;24.83;17.00;;;8.30;99.90;;;;;;4967247;28;20098;-78
2023/12/22 07:17:56;;;;;;;25.58;18.50;;;8.30;99.90;;;;;;4962341;28;20051;-75
2023/12/22 07:20:24;;;;;;;31.30;22.35;;;8.30;99.90;;;;;;4955259;28;20097;-75
2023/12/22 07:22:53;;;;;;;30.02;22.67;;;8.40;99.90;;;;;;4955555;28;20070;-77
2023/12/22 07:25:21;;;;;;;32.47;22.25;;;8.30;99.90;;;;;;4950018;28;20043;-76
2023/12/22 07:27:51;;;;;;;54.90;34.72;;;8.30;99.90;;;;;;4974026;28;20051;-76
2023/12/22 07:30:19;;;;;;;76.75;50.47;;;8.30;99.90;;;;;;4975351;28;20467;-76
2023/12/22 07:32:52;;;;;;;66.25;42.65;;;8.20;99.90;;;;;;4943540;28;20408;-76
2023/12/22 07:35:19;;;;;;;63.53;38.83;;;8.20;99.90;;;;;;4949523;28;20042;-76
2023/12/22 07:37:47;;;;;;;50.08;34.30;;;8.20;99.90;;;;;;4968639;28;20035;-78
2023/12/22 07:40:15;;;;;;;44.05;31.77;;;8.20;99.90;;;;;;4950441;28;20039;-75
2023/12/22 07:42:43;;;;;;;52.60;34.83;;;8.10;99.90;;;;;;4948748;28;20049;-77
2023/12/22 07:45:12;;;;;;;56.63;39.03;;;8.10;99.90;;;;;;4949952;28;20054;-77
2023/12/22 07:47:42;;;;;;;50.28;36.42;;;8.10;99.90;;;;;;4947218;28;20045;-79
2023/12/22 07:50:11;;;;;;;51.75;35.40;;;8.30;99.90;;;;;;4950025;28;20043;-77
2023/12/22 07:52:39;;;;;;;43.28;31.35;;;8.40;99.90;;;;;;4971064;28;20043;-78
2023/12/22 07:55:10;;;;;;;63.08;41.83;;;8.50;99.90;;;;;;4996336;28;20037;-77
2023/12/22 07:57:38;;;;;;;70.38;45.75;;;8.60;99.90;;;;;;4969703;28;20073;-78
2023/12/22 08:00:07;;;;;;;58.20;39.50;;;8.60;99.90;;;;;;4958484;28;20137;-77
2023/12/22 08:02:41;;;;;;;56.85;36.70;;;8.60;99.90;;;;;;4976804;28;20085;-76
2023/12/22 08:05:15;;;;;;;57.92;38.67;;;8.70;99.90;;;;;;4960055;28;20058;-78
2023/12/22 08:07:43;;;;;;;59.22;38.35;;;8.70;99.90;;;;;;4962696;28;20092;-77
2023/12/22 08:10:11;;;;;;;55.65;36.47;;;8.80;99.90;;;;;;4960453;28;20047;-74
2023/12/22 08:12:39;;;;;;;58.35;41.33;;;8.90;99.90;;;;;;4959968;28;20046;-76
2023/12/22 08:15:10;;;;;;;73.75;49.67;;;8.90;99.90;;;;;;4958669;28;20043;-76
2023/12/22 08:17:40;;;;;;;64.13;44.97;;;9.00;99.90;;;;;;4973524;28;20043;-76
2023/12/22 08:20:10;;;;;;;57.72;40.42;;;9.00;99.90;;;;;;4982255;28;20133;-77
2023/12/22 08:22:37;;;;;;;61.95;42.17;;;9.00;99.90;;;;;;4966690;28;20066;-78
2023/12/22 08:25:09;;;;;;;66.57;46.20;;;8.90;99.90;;;;;;4985603;28;20057;-78
2023/12/22 08:27:43;;;;;;;65.22;46.55;;;8.80;99.90;;;;;;4994618;28;20077;-78
2023/12/22 08:30:19;;;;;;;67.20;48.35;;;8.80;99.90;;;;;;4976194;28;20054;-80
2023/12/22 08:32:48;;;;;;;69.32;48.75;;;8.80;99.90;;;;;;4970396;28;20050;-78
2023/12/22 08:35:17;;;;;;;70.63;53.67;;;8.60;99.90;;;;;;4961661;28;20035;-77
2023/12/22 08:37:48;;;;;;;79.18;57.50;;;8.50;99.90;;;;;;4962653;28;20458;-79
2023/12/22 08:40:16;;;;;;;75.95;55.25;;;8.40;99.90;;;;;;4960490;28;20039;-77
2023/12/22 08:42:44;;;;;;;79.53;57.20;;;8.50;99.90;;;;;;4976838;28;20053;-78
2023/12/22 08:45:15;;;;;;;72.53;52.38;;;8.60;99.90;;;;;;4978261;28;20047;-76
2023/12/22 08:47:43;;;;;;;64.90;46.97;;;8.70;99.90;;;;;;4958954;28;20039;-76
2023/12/22 08:50:12;;;;;;;61.72;45.28;;;8.80;99.90;;;;;;4959360;28;20043;-77
2023/12/22 08:52:42;;;;;;;61.80;45.05;;;8.80;99.90;;;;;;4959754;28;20051;-75
2023/12/22 08:55:10;;;;;;;69.10;51.05;;;8.80;99.90;;;;;;4959984;28;20503;-77
2023/12/22 08:57:41;;;;;;;68.28;48.55;;;8.80;99.90;;;;;;4961721;28;20043;-77
2023/12/22 09:00:10;;;;;;;74.55;50.75;;;8.90;99.90;;;;;;4981318;28;20448;-78
2023/12/22 09:02:39;;;;;;;81.18;52.05;;;8.90;99.90;;;;;;4971618;28;20054;-77
2023/12/22 09:05:07;;;;;;;76.32;52.53;;;8.90;99.90;;;;;;4986993;28;20480;-78
2023/12/22 09:07:47;;;;;;;73.25;51.95;;;8.80;99.90;;;;;;4960086;28;20363;-77
2023/12/22 09:10:32;;;;;;;73.88;52.03;;;8.90;99.90;;;;;;4959938;28;20046;-77
2023/12/22 09:13:00;;;;;;;79.43;56.58;;;8.90;99.90;;;;;;4962530;28;20051;-79
2023/12/22 09:15:33;;;;;;;78.65;58.60;;;9.00;99.90;;;;;;4959014;28;20054;-79
2023/12/22 09:18:04;;;;;;;79.80;58.88;;;9.00;99.90;;;;;;4977459;28;20047;-77
2023/12/22 09:20:36;;;;;;;90.47;64.97;;;9.00;99.90;;;;;;4976081;28;20070;-78
2023/12/22 09:23:26;;;;;;;79.25;59.10;;;9.00;99.90;;;;;;4990017;28;20027;-81
2023/12/22 09:26:08;;;;;;;66.93;49.95;;;8.90;99.90;;;;;;4974230;28;20101;-81
2023/12/22 09:28:58;;;;;;;64.40;45.83;;;8.80;99.90;;;;;;4962436;28;20050;-79
2023/12/22 09:31:32;;;;;;;63.60;47.33;;;8.90;99.90;;;;;;4960143;28;20516;-79
2023/12/22 09:34:33;;;;;;;60.83;47.75;;;8.80;99.90;;;;;;4964892;28;20180;-79
2023/12/22 09:37:11;;;;;;;61.53;44.90;;;8.80;99.90;;;;;;4958599;28;20047;-78
2023/12/22 09:39:43;;;;;;;56.30;41.38;;;8.90;99.90;;;;;;4958104;28;20050;-78
2023/12/22 09:42:16;;;;;;;44.13;29.77;;;9.10;99.90;;;;;;4958478;28;20039;-79
2023/12/22 09:44:44;;;;;;;33.90;24.77;;;9.10;99.90;;;;;;4958232;28;20054;-79
2023/12/22 09:47:15;;;;;;;29.98;20.83;;;9.20;99.90;;;;;;4960128;28;20051;-79
2023/12/22 09:49:46;;;;;;;29.55;19.45;;;9.30;99.90;;;;;;4975136;28;20063;-79
2023/12/22 09:52:20;;;;;;;31.75;20.75;;;9.40;99.90;;;;;;4962005;28;20137;-78
2023/12/22 09:55:00;;;;;;;31.05;21.15;;;9.50;99.90;;;;;;4991575;28;20058;-78
2023/12/22 09:57:42;;;;;;;84.28;50.67;;;9.70;99.90;;;;;;4984865;28;20482;-77
2023/12/22 10:03:26;;;;;;;81.47;50.70;;;9.90;1.00;;;;;;4971387;28;20070;-80
2023/12/22 10:06:18;;;;;;;51.38;34.80;;;10.10;1.00;;;;;;4977251;28;20051;-78
2023/12/22 10:09:14;;;;;;;44.70;31.00;;;10.10;1.00;;;;;;4987981;28;20054;-78
2023/12/22 10:12:37;;;;;;;44.85;27.15;;;10.20;1.00;;;;;;4990123;28;20038;-79
2023/12/22 10:15:30;;;;;;;35.65;23.73;;;10.30;35.00;;;;;;4957808;28;20435;-78
2023/12/22 10:21:57;;;;;;;72.93;47.78;;;10.20;99.90;;;;;;4965528;28;20043;-79
2023/12/22 10:24:47;;;;;;;63.05;42.60;;;10.10;96.60;;;;;;4979494;28;20094;-78
2023/12/22 10:27:16;;;;;;;62.35;40.42;;;9.90;99.90;;;;;;4995027;28;20037;-79
2023/12/22 10:29:44;;;;;;;53.67;38.17;;;9.80;13.90;;;;;;4997490;28;20031;-79
2023/12/22 10:32:15;;;;;;;54.13;35.08;;;9.80;99.90;;;;;;4999051;28;20027;-78
2023/12/22 10:34:44;;;;;;;64.00;42.53;;;9.70;5.70;;;;;;4982291;28;20051;-78
2023/12/22 10:37:14;;;;;;;59.35;41.38;;;9.70;1.00;;;;;;4973275;28;20063;-80
2023/12/22 10:39:42;;;;;;;45.00;32.28;;;9.70;1.00;;;;;;4984832;28;20549;-79
2023/12/22 10:42:10;;;;;;;43.83;30.58;;;9.80;1.00;;;;;;4968313;28;20039;-81
2023/12/22 10:44:43;;;;;;;45.70;31.60;;;9.90;99.90;;;;;;4967821;28;20070;-77
2023/12/22 10:47:11;;;;;;;58.65;39.67;;;10.00;99.90;;;;;;4990464;28;20049;-78
2023/12/22 10:49:41;;;;;;;63.00;43.60;;;10.10;99.90;;;;;;4993858;28;20047;-77
2023/12/22 10:52:16;;;;;;;66.07;45.00;;;10.00;1.00;;;;;;4971229;28;20161;-78
2023/12/22 10:54:44;;;;;;;60.97;43.85;;;10.20;99.90;;;;;;4981126;28;20066;-78
2023/12/22 10:57:12;;;;;;;73.20;51.25;;;10.30;99.90;;;;;;4962352;28;20525;-80
2023/12/22 10:59:46;;;;;;;69.32;47.55;;;10.40;1.00;;;;;;4981674;28;20051;-80
2023/12/22 11:02:17;;;;;;;65.28;45.92;;;10.40;99.90;;;;;;4946933;28;20046;-79
2023/12/22 11:08:11;;;;;;;59.70;41.60;;;10.60;1.00;;;;;;4969241;28;20059;-77
2023/12/22 11:10:44;;;;;;;56.03;38.92;;;10.70;1.00;;;;;;4979859;28;20114;-75
2023/12/22 11:13:13;;;;;;;56.60;37.35;;;10.70;1.00;;;;;;4978757;28;20070;-78
2023/12/22 11:16:10;;;;;;;53.92;37.17;;;10.50;1.00;;;;;;4977361;28;20058;-75
2023/12/22 11:18:41;;;;;;;53.80;38.25;;;10.50;1.00;;;;;;4962452;28;20051;-78
2023/12/22 11:21:11;;;;;;;54.78;38.40;;;10.50;1.00;;;;;;4977630;28;20047;-78
2023/12/22 11:23:43;;;;;;;54.05;38.20;;;10.50;1.00;;;;;;4966303;28;20139;-79
2023/12/22 11:26:13;;;;;;;49.78;35.60;;;10.50;99.90;;;;;;4979087;28;20141;-78
2023/12/22 11:28:44;;;;;;;55.67;36.00;;;10.60;1.00;;;;;;4961890;28;20053;-78
2023/12/22 11:31:14;;;;;;;45.97;32.65;;;10.60;1.00;;;;;;4978802;28;20058;-80
2023/12/22 11:33:46;;;;;;;47.72;33.60;;;10.60;1.00;;;;;;4965196;28;20051;-79
2023/12/22 11:36:20;;;;;;;52.13;33.30;;;10.70;77.00;;;;;;4980522;28;20047;-79
2023/12/22 11:38:50;;;;;;;47.83;32.10;;;10.90;1.00;;;;;;4947613;28;20047;-79
2023/12/22 11:41:22;;;;;;;44.55;30.38;;;10.80;1.00;;;;;;4979528;28;20039;-79
2023/12/22 11:43:52;;;;;;;49.05;31.27;;;10.60;1.00;;;;;;4977953;28;20046;-78
2023/12/22 11:46:23;;;;;;;43.67;30.17;;;10.40;1.00;;;;;;4970600;28;20069;-79
2023/12/22 11:48:55;;;;;;;50.67;33.67;;;10.30;99.90;;;;;;4977159;28;20069;-78
2023/12/22 11:51:26;;;;;;;56.63;36.17;;;10.20;1.00;;;;;;4966837;28;20061;-79
2023/12/22 11:53:55;;;;;;;56.83;37.58;;;10.00;1.00;;;;;;4978811;28;20074;-79
2023/12/22 11:56:26;;;;;;;57.33;38.20;;;9.90;1.00;;;;;;4961733;28;20138;-78
2023/12/22 11:58:58;;;;;;;55.50;38.03;;;9.60;99.90;;;;;;4979344;28;20039;-79
2023/12/22 12:01:31;;;;;;;73.40;54.38;;;9.40;1.00;;;;;;4962463;28;20053;-79
2023/12/22 12:04:01;;;;;;;104.38;72.45;;;9.40;1.00;;;;;;4975551;28;20043;-78
2023/12/22 12:06:36;;;;;;;95.95;66.30;;;9.40;1.00;;;;;;4980027;28;20046;-79
2023/12/22 12:09:18;;;;;;;89.68;65.03;;;9.50;1.00;;;;;;4980714;28;20046;-77
2023/12/22 12:12:12;;;;;;;94.88;69.00;;;9.60;99.90;;;;;;4970456;28;20035;-78
2023/12/22 12:14:47;;;;;;;75.50;54.13;;;9.70;99.90;;;;;;4977967;28;20037;-78
2023/12/22 12:17:19;;;;;;;68.10;47.30;;;9.80;99.90;;;;;;4971259;28;20043;-78
2023/12/22 12:19:53;;;;;;;63.30;44.70;;;9.80;7.40;;;;;;4964392;28;20051;-79
2023/12/22 12:22:24;;;;;;;61.67;41.45;;;10.00;99.90;;;;;;4962756;28;20081;-78
2023/12/22 12:24:55;;;;;;;69.30;45.15;;;10.10;1.00;;;;;;4976024;28;20105;-79
2023/12/22 12:27:23;;;;;;;66.82;44.85;;;10.10;1.00;;;;;;4960434;28;20054;-78
2023/12/22 12:29:53;;;;;;;70.50;48.70;;;9.90;1.00;;;;;;4978013;28;20086;-78
2023/12/22 12:32:25;;;;;;;66.82;44.72;;;9.90;1.00;;;;;;4958363;28;20073;-79
2023/12/22 12:34:56;;;;;;;62.55;39.40;;;10.10;1.00;;;;;;4959670;28;20074;-79
2023/12/22 12:37:24;;;;;;;54.78;37.22;;;10.20;99.90;;;;;;4975135;28;20042;-80
2023/12/22 12:40:00;;;;;;;56.78;36.42;;;10.40;1.00;;;;;;4975941;28;20038;-80
2023/12/22 12:42:32;;;;;;;55.55;37.42;;;10.70;1.00;;;;;;4977673;28;20067;-81
2023/12/22 12:45:06;;;;;;;57.88;37.90;;;10.90;95.30;;;;;;4962021;28;20051;-80
2023/12/22 12:47:39;;;;;;;36.42;25.95;;;11.00;99.90;;;;;;4960300;28;20046;-79
2023/12/22 12:50:07;;;;;;;37.67;25.40;;;11.10;33.40;;;;;;4960680;28;20045;-79
2023/12/22 12:52:37;;;;;;;34.83;24.33;;;11.20;1.00;;;;;;4958925;28;20046;-79
2023/12/22 12:55:18;;;;;;;37.45;24.27;;;11.20;1.00;;;;;;4960098;28;20043;-80
2023/12/22 12:57:49;;;;;;;39.90;26.85;;;11.30;1.00;;;;;;4962414;28;20446;-81
2023/12/22 13:00:25;;;;;;;40.15;27.65;;;11.30;1.00;;;;;;4976198;28;20094;-81
2023/12/22 13:02:56;;;;;;;45.72;29.75;;;11.20;99.90;;;;;;4964838;28;20074;-78
2023/12/22 13:05:24;;;;;;;49.88;33.67;;;11.10;99.90;;;;;;4977033;28;20059;-79